Time;durP1;ratioP1;P1;durP2;ratioP2;P2;SDS_P1;SDS_P2;PMS_P1;PMS_P2;Temp;Humidity;BMP_temperature;BMP_pressure;BME280_temperature;BME280_humidity;BME280_pressure;Samples;Min_cycle;Max_cycle;Signal;HPM_P1;HPM_P2
2024/02/17 00:00:54;;;;;;;;;;;;;;;1.51;100.00;101875.95;108158;1254;73077;-78
2024/02/17 00:03:22;;;;;;;;;;;;;;;1.54;100.00;101876.88;108097;1254;71371;-78
2024/02/17 00:05:50;;;;;;;;;;;;;;;1.59;100.00;101878.91;108135;1254;72687;-79
2024/02/17 00:08:18;;;;;;;;;;;;;;;1.60;100.00;101873.41;108200;1253;61252;-79
2024/02/17 00:10:45;;;;;;;;;;;;;;;1.61;100.00;101875.58;108148;1254;61010;-78
2024/02/17 00:13:12;;;;;;;;;;;;;;;1.65;100.00;101878.67;107987;1254;75129;-78
2024/02/17 00:15:39;;;;;;;;;;;;;;;1.65;100.00;101885.86;108168;1254;72571;-79
2024/02/17 00:18:07;;;;;;;;;;;;;;;1.61;100.00;101880.16;108159;1257;72346;-80
2024/02/17 00:20:33;;;;;;;;;;;;;;;1.59;100.00;101875.56;108202;1254;61216;-77
2024/02/17 00:23:01;;;;;;;;;;;;;;;1.60;100.00;101869.69;108216;1254;61246;-79
2024/02/17 00:25:27;;;;;;;;;;;;;;;1.62;100.00;101870.35;107846;1254;74672;-79
2024/02/17 00:27:54;;;;;;;;;;;;;;;1.66;100.00;101874.16;108141;1254;72701;-77
2024/02/17 00:30:21;;;;;;;;;;;;;;;1.70;100.00;101869.95;108159;1253;71346;-78
2024/02/17 00:32:48;;;;;;;;;;;;;;;1.70;100.00;101869.33;108121;1254;61313;-74
2024/02/17 00:35:15;;;;;;;;;;;;;;;1.76;100.00;101873.30;108095;1254;61250;-77
2024/02/17 00:37:42;;;;;;;;;;;;;;;1.76;100.00;101867.63;108090;1254;73040;-78
2024/02/17 00:40:10;;;;;;;;;;;;;;;1.72;100.00;101862.80;108016;1255;72567;-78
2024/02/17 00:42:37;;;;;;;;;;;;;;;1.72;100.00;101867.95;108154;1254;74902;-78
2024/02/17 00:45:04;;;;;;;;;;;;;;;1.75;100.00;101870.41;108094;1257;61101;-77
2024/02/17 00:47:34;;;;;;;;;;;;;;;1.78;100.00;101865.89;108035;1254;61122;-79
2024/02/17 00:50:00;;;;;;;;;;;;;;;1.85;100.00;101860.48;108115;1254;74757;-79
2024/02/17 00:52:28;;;;;;;;;;;;;;;1.91;100.00;101860.93;108115;1254;72585;-77
2024/02/17 00:54:55;;;;;;;;;;;;;;;1.96;100.00;101860.23;108102;1254;72514;-77
2024/02/17 00:57:22;;;;;;;;;;;;;;;1.97;100.00;101856.50;108133;1254;61370;-77
2024/02/17 00:59:49;;;;;;;;;;;;;;;1.93;100.00;101854.60;108155;1254;61246;-78
2024/02/17 01:02:16;;;;;;;;;;;;;;;1.90;100.00;101854.15;108221;1254;73158;-78
2024/02/17 01:04:43;;;;;;;;;;;;;;;1.87;100.00;101848.85;108245;1254;73133;-78
2024/02/17 01:07:10;;;;;;;;;;;;;;;1.87;100.00;101848.69;108081;1254;71184;-78
2024/02/17 01:09:37;;;;;;;;;;;;;;;1.92;100.00;101846.11;108199;1254;61125;-79
2024/02/17 01:12:03;;;;;;;;;;;;;;;1.94;100.00;101845.30;108175;1253;61128;-77
2024/02/17 01:14:31;;;;;;;;;;;;;;;1.96;100.00;101842.23;108163;1254;74127;-78
2024/02/17 01:16:58;;;;;;;;;;;;;;;1.94;100.00;101842.69;108066;1254;72540;-78
2024/02/17 01:19:25;;;;;;;;;;;;;;;1.82;100.00;101843.07;107967;1254;71576;-78
2024/02/17 01:21:52;;;;;;;;;;;;;;;1.77;100.00;101842.94;108086;1254;61233;-78
2024/02/17 01:24:19;;;;;;;;;;;;;;;1.78;100.00;101843.05;108111;1254;61132;-78
2024/02/17 01:26:46;;;;;;;;;;;;;;;1.81;100.00;101843.43;108032;1254;72826;-79
2024/02/17 01:29:14;;;;;;;;;;;;;;;1.85;100.00;101845.27;108139;1253;72374;-78
2024/02/17 01:31:41;;;;;;;;;;;;;;;1.85;100.00;101842.27;108143;1254;72513;-80
2024/02/17 01:34:08;;;;;;;;;;;;;;;1.82;100.00;101843.83;108191;1253;61148;-79
2024/02/17 01:36:35;;;;;;;;;;;;;;;1.77;100.00;101842.64;108208;1254;59062;-77
2024/02/17 01:39:02;;;;;;;;;;;;;;;1.76;100.00;101842.77;108082;1254;73372;-77
2024/02/17 01:41:29;;;;;;;;;;;;;;;1.72;100.00;101843.90;108138;1254;71446;-77
2024/02/17 01:43:55;;;;;;;;;;;;;;;1.68;100.00;101844.70;108038;1254;71245;-78
2024/02/17 01:46:22;;;;;;;;;;;;;;;1.69;100.00;101848.27;108069;1254;61186;-78
2024/02/17 01:48:50;;;;;;;;;;;;;;;1.66;100.00;101846.33;108012;1253;61346;-78
2024/02/17 01:51:17;;;;;;;;;;;;;;;1.61;100.00;101844.09;108188;1254;74626;-78
2024/02/17 01:53:45;;;;;;;;;;;;;;;1.58;100.00;101845.04;107993;1254;72587;-78
2024/02/17 01:56:15;;;;;;;;;;;;;;;1.58;100.00;101843.98;108141;1254;72687;-78
2024/02/17 01:58:42;;;;;;;;;;;;;;;1.59;100.00;101843.27;107917;1260;61661;-78
2024/02/17 02:01:09;;;;;;;;;;;;;;;1.59;100.00;101838.77;108068;1254;59956;-77
2024/02/17 02:03:36;;;;;;;;;;;;;;;1.59;100.00;101838.20;108034;1254;73430;-77
2024/02/17 02:06:04;;;;;;;;;;;;;;;1.61;100.00;101841.67;108135;1254;72541;-78
2024/02/17 02:08:31;;;;;;;;;;;;;;;1.63;100.00;101840.43;108143;1254;72641;-78
2024/02/17 02:11:00;;;;;;;;;;;;;;;1.62;100.00;101837.52;108038;1254;61193;-78
2024/02/17 02:13:27;;;;;;;;;;;;;;;1.59;100.00;101834.40;108133;1254;61154;-78
2024/02/17 02:15:56;;;;;;;;;;;;;;;1.56;100.00;101834.14;108125;1253;74482;-79
2024/02/17 02:18:22;;;;;;;;;;;;;;;1.58;100.00;101833.19;108128;1253;72961;-78
2024/02/17 02:20:50;;;;;;;;;;;;;;;1.61;100.00;101830.84;108129;1254;71183;-79
2024/02/17 02:23:18;;;;;;;;;;;;;;;1.63;100.00;101834.96;108181;1254;60099;-80
2024/02/17 02:25:54;;;;;;;;;;;;;;;1.63;100.00;101834.56;108196;1254;61260;-77
2024/02/17 02:28:22;;;;;;;;;;;;;;;1.61;100.00;101830.92;108212;1253;74731;-77
2024/02/17 02:30:50;;;;;;;;;;;;;;;1.59;100.00;101828.95;108556;1254;71252;-78
2024/02/17 02:33:17;;;;;;;;;;;;;;;1.61;100.00;101824.83;108528;1256;71187;-77
2024/02/17 02:35:45;;;;;;;;;;;;;;;1.66;100.00;101822.91;108487;1254;59721;-77
2024/02/17 02:38:12;;;;;;;;;;;;;;;1.72;100.00;101824.17;108223;1254;61314;-78
2024/02/17 02:40:39;;;;;;;;;;;;;;;1.75;100.00;101818.63;108122;1254;73696;-78
2024/02/17 02:43:06;;;;;;;;;;;;;;;1.78;100.00;101817.69;108102;1257;71317;-78
2024/02/17 02:45:33;;;;;;;;;;;;;;;1.80;100.00;101819.36;108093;1254;72625;-78
2024/02/17 02:48:00;;;;;;;;;;;;;;;1.82;100.00;101819.92;108207;1254;61134;-78
2024/02/17 02:50:27;;;;;;;;;;;;;;;1.83;100.00;101816.66;108224;1254;61115;-78
2024/02/17 02:52:54;;;;;;;;;;;;;;;1.84;100.00;101817.38;108249;1254;74789;-78
2024/02/17 02:55:20;;;;;;;;;;;;;;;1.83;100.00;101821.20;108227;1254;71451;-77
2024/02/17 02:57:47;;;;;;;;;;;;;;;1.77;100.00;101820.98;108087;1254;71530;-77
2024/02/17 03:00:14;;;;;;;;;;;;;;;1.71;100.00;101819.70;108057;1254;61342;-77
2024/02/17 03:02:40;;;;;;;;;;;;;;;1.69;100.00;101814.48;108110;1254;61243;-79
2024/02/17 03:05:08;;;;;;;;;;;;;;;1.67;100.00;101812.24;108166;1254;74724;-78
2024/02/17 03:07:34;;;;;;;;;;;;;;;1.63;100.00;101814.09;108067;1254;72737;-80
2024/02/17 03:10:02;;;;;;;;;;;;;;;1.61;100.00;101807.94;108035;1257;71554;-78
2024/02/17 03:12:29;;;;;;;;;;;;;;;1.61;100.00;101810.04;108052;1255;61706;-78
2024/02/17 03:14:58;;;;;;;;;;;;;;;1.63;100.00;101807.60;108057;1254;61126;-78
2024/02/17 03:17:25;;;;;;;;;;;;;;;1.65;100.00;101805.10;107966;1254;73242;-78
2024/02/17 03:19:52;;;;;;;;;;;;;;;1.65;100.00;101799.67;108055;1254;72839;-78
2024/02/17 03:22:19;;;;;;;;;;;;;;;1.64;100.00;101795.52;108106;1254;74867;-78
2024/02/17 03:24:48;;;;;;;;;;;;;;;1.61;100.00;101793.88;108113;1257;61141;-78
2024/02/17 03:27:15;;;;;;;;;;;;;;;1.59;100.00;101791.84;108205;1254;61218;-77
2024/02/17 03:29:42;;;;;;;;;;;;;;;1.55;100.00;101790.53;108149;1254;74718;-77
2024/02/17 03:32:08;;;;;;;;;;;;;;;1.49;100.00;101792.94;108167;1254;72553;-77
2024/02/17 03:34:35;;;;;;;;;;;;;;;1.46;100.00;101796.67;108138;1254;71459;-77
2024/02/17 03:37:03;;;;;;;;;;;;;;;1.44;100.00;101794.96;108043;1254;62347;-77
2024/02/17 03:39:30;;;;;;;;;;;;;;;1.42;100.00;101798.49;107985;1254;61145;-78
2024/02/17 03:41:57;;;;;;;;;;;;;;;1.38;100.00;101797.33;108031;1254;73435;-78
2024/02/17 03:44:24;;;;;;;;;;;;;;;1.31;100.00;101796.71;108045;1254;72809;-78
2024/02/17 03:46:51;;;;;;;;;;;;;;;1.24;100.00;101801.48;108035;1254;71266;-78
2024/02/17 03:49:20;;;;;;;;;;;;;;;1.14;100.00;101796.71;108215;1253;61207;-78
2024/02/17 03:51:47;;;;;;;;;;;;;;;1.09;100.00;101797.23;108204;1253;61718;-78
2024/02/17 03:54:14;;;;;;;;;;;;;;;1.08;100.00;101795.82;108171;1254;74546;-78
2024/02/17 03:56:41;;;;;;;;;;;;;;;1.11;100.00;101793.52;108159;1254;72805;-78
2024/02/17 03:59:08;;;;;;;;;;;;;;;1.11;100.00;101788.63;108070;1254;72504;-77
2024/02/17 04:01:35;;;;;;;;;;;;;;;1.13;100.00;101789.62;108137;1254;60519;-77
2024/02/17 04:04:05;;;;;;;;;;;;;;;1.16;100.00;101785.96;108134;1254;61112;-78
2024/02/17 04:06:32;;;;;;;;;;;;;;;1.16;100.00;101783.55;108010;1254;75141;-78
2024/02/17 04:08:59;;;;;;;;;;;;;;;1.13;100.00;101783.62;107999;1254;74034;-78
2024/02/17 04:11:26;;;;;;;;;;;;;;;1.12;100.00;101779.75;108006;1260;72508;-80
2024/02/17 04:13:55;;;;;;;;;;;;;;;1.12;100.00;101780.11;108108;1254;61271;-78
2024/02/17 04:16:22;;;;;;;;;;;;;;;1.10;100.00;101776.13;108223;1253;59036;-78
2024/02/17 04:18:49;;;;;;;;;;;;;;;1.05;100.00;101781.41;108226;1254;74466;-77
2024/02/17 04:21:16;;;;;;;;;;;;;;;1.04;100.00;101776.94;108162;1254;72681;-78
2024/02/17 04:23:43;;;;;;;;;;;;;;;1.06;100.00;101776.16;108019;1254;71519;-77
2024/02/17 04:26:11;;;;;;;;;;;;;;;1.11;100.00;101774.48;108249;1254;61199;-78
2024/02/17 04:28:40;;;;;;;;;;;;;;;1.15;100.00;101775.95;108255;1254;61237;-77
2024/02/17 04:31:07;;;;;;;;;;;;;;;1.17;100.00;101776.06;108094;1254;73170;-78
2024/02/17 04:33:34;;;;;;;;;;;;;;;1.18;100.00;101777.77;108133;1255;72597;-78
2024/02/17 04:36:01;;;;;;;;;;;;;;;1.16;100.00;101776.39;108131;1254;72546;-78
2024/02/17 04:38:28;;;;;;;;;;;;;;;1.16;100.00;101780.08;108133;1254;61214;-78
2024/02/17 04:40:55;;;;;;;;;;;;;;;1.14;100.00;101779.87;108194;1257;61194;-76
2024/02/17 04:43:22;;;;;;;;;;;;;;;1.15;100.00;101781.49;108226;1254;74429;-78
2024/02/17 04:45:50;;;;;;;;;;;;;;;1.18;100.00;101776.15;108208;1254;72620;-77
2024/02/17 04:48:16;;;;;;;;;;;;;;;1.21;100.00;101775.53;108148;1254;72450;-77
2024/02/17 04:50:43;;;;;;;;;;;;;;;1.23;100.00;101774.42;108190;1254;60415;-78
2024/02/17 04:53:10;;;;;;;;;;;;;;;1.23;100.00;101776.02;108197;1254;61247;-78
2024/02/17 04:55:37;;;;;;;;;;;;;;;1.21;100.00;101775.89;108212;1254;74438;-78
2024/02/17 04:58:03;;;;;;;;;;;;;;;1.19;100.00;101776.98;108186;1254;72589;-77
2024/02/17 05:00:31;;;;;;;;;;;;;;;1.17;100.00;101775.30;108174;1254;72591;-78
2024/02/17 05:02:58;;;;;;;;;;;;;;;1.19;100.00;101775.04;108197;1254;61580;-79
2024/02/17 05:05:25;;;;;;;;;;;;;;;1.17;100.00;101775.33;108183;1258;61339;-78
2024/02/17 05:07:51;;;;;;;;;;;;;;;1.17;100.00;101773.63;108175;1254;74505;-78
2024/02/17 05:10:19;;;;;;;;;;;;;;;1.16;100.00;101781.09;108087;1254;72749;-79
2024/02/17 05:12:48;;;;;;;;;;;;;;;1.17;100.00;101777.66;108118;1253;72745;-79
2024/02/17 05:15:16;;;;;;;;;;;;;;;1.17;100.00;101779.01;108176;1254;62598;-78
2024/02/17 05:17:44;;;;;;;;;;;;;;;1.16;100.00;101775.96;108240;1253;61167;-78
2024/02/17 05:20:11;;;;;;;;;;;;;;;1.14;100.00;101782.38;108267;1254;75916;-78
2024/02/17 05:22:38;;;;;;;;;;;;;;;1.11;100.00;101781.61;108201;1254;74190;-79
2024/02/17 05:25:05;;;;;;;;;;;;;;;1.10;100.00;101784.18;108111;1259;72974;-78
2024/02/17 05:27:32;;;;;;;;;;;;;;;1.10;100.00;101784.71;108135;1254;61292;-78
2024/02/17 05:30:00;;;;;;;;;;;;;;;1.10;100.00;101788.72;108157;1257;61225;-78
2024/02/17 05:32:27;;;;;;;;;;;;;;;1.10;100.00;101789.13;108140;1257;73838;-77
2024/02/17 05:34:54;;;;;;;;;;;;;;;1.09;100.00;101789.59;108128;1257;72747;-81
2024/02/17 05:37:23;;;;;;;;;;;;;;;1.07;100.00;101791.71;108182;1254;72706;-78
2024/02/17 05:39:51;;;;;;;;;;;;;;;1.01;100.00;101794.41;108195;1254;61083;-78
2024/02/17 05:42:19;;;;;;;;;;;;;;;0.98;100.00;101791.14;108110;1254;61671;-77
2024/02/17 05:44:46;;;;;;;;;;;;;;;0.97;100.00;101794.70;108025;1254;74079;-78
2024/02/17 05:47:12;;;;;;;;;;;;;;;0.99;100.00;101796.27;108047;1257;71899;-78
2024/02/17 05:49:39;;;;;;;;;;;;;;;0.99;100.00;101795.59;108019;1253;72435;-79
2024/02/17 05:52:06;;;;;;;;;;;;;;;0.98;100.00;101793.20;108124;1254;61175;-78
2024/02/17 05:54:35;;;;;;;;;;;;;;;0.99;100.00;101796.45;108082;1254;61014;-78
2024/02/17 05:57:02;;;;;;;;;;;;;;;1.00;100.00;101797.08;108148;1254;74457;-78
2024/02/17 05:59:30;;;;;;;;;;;;;;;1.00;100.00;101798.49;108142;1254;72680;-78
2024/02/17 06:01:57;;;;;;;;;;;;;;;1.02;100.00;101799.30;108214;1253;72733;-78
2024/02/17 06:04:24;;;;;;;;;;;;;;;1.04;100.00;101796.98;108006;1254;61091;-81
2024/02/17 06:06:51;;;;;;;;;;;;;;;1.07;100.00;101799.94;108286;1254;61239;-77
2024/02/17 06:09:20;;;;;;;;;;;;;;;1.12;100.00;101805.59;108267;1254;74897;-78
2024/02/17 06:11:48;;;;;;;;;;;;;;;1.13;100.00;101801.75;108099;1254;73141;-78
2024/02/17 06:14:18;;;;;;;;;;;;;;;1.16;100.00;101801.09;108160;1253;72500;-78
2024/02/17 06:16:45;;;;;;;;;;;;;;;1.18;100.00;101803.17;108108;1254;61138;-78
2024/02/17 06:22:01;;;;;;;;;;;;;;;1.13;100.00;101801.79;108063;1254;73322;-78
2024/02/17 06:24:28;;;;;;;;;;;;;;;1.14;100.00;101801.98;108073;1257;72726;-79
2024/02/17 06:26:55;;;;;;;;;;;;;;;1.15;100.00;101804.84;108192;1254;72709;-78
2024/02/17 06:29:23;;;;;;;;;;;;;;;1.16;100.00;101804.98;108152;1254;61219;-78
2024/02/17 06:31:49;;;;;;;;;;;;;;;1.15;100.00;101807.14;108131;1256;59872;-78
2024/02/17 06:34:16;;;;;;;;;;;;;;;1.17;100.00;101805.02;108092;1258;74337;-79
2024/02/17 06:36:43;;;;;;;;;;;;;;;1.23;100.00;101804.41;108153;1254;72746;-79
2024/02/17 06:39:11;;;;;;;;;;;;;;;1.26;100.00;101804.27;108173;1258;71303;-77
2024/02/17 06:41:37;;;;;;;;;;;;;;;1.27;100.00;101806.98;108189;1254;60997;-79
2024/02/17 06:44:04;;;;;;;;;;;;;;;1.28;100.00;101803.46;108009;1255;61224;-76
2024/02/17 06:46:31;;;;;;;;;;;;;;;1.32;100.00;101803.72;108124;1257;75732;-78
2024/02/17 06:48:58;;;;;;;;;;;;;;;1.37;100.00;101805.66;108087;1257;72608;-79
2024/02/17 06:51:24;;;;;;;;;;;;;;;1.41;100.00;101805.96;108142;1254;71115;-78
2024/02/17 06:53:51;;;;;;;;;;;;;;;1.45;100.00;101803.74;108088;1254;61146;-79
2024/02/17 06:56:18;;;;;;;;;;;;;;;1.47;100.00;101801.67;108150;1254;61106;-79
2024/02/17 06:58:46;;;;;;;;;;;;;;;1.47;100.00;101798.35;108181;1254;74758;-78
2024/02/17 07:01:13;;;;;;;;;;;;;;;1.47;100.00;101797.19;108188;1253;71213;-82
2024/02/17 07:03:39;;;;;;;;;;;;;;;1.47;100.00;101792.31;108331;1254;72778;-81
2024/02/17 07:06:06;;;;;;;;;;;;;;;1.46;100.00;101794.70;108007;1255;61256;-78
2024/02/17 07:08:34;;;;;;;;;;;;;;;1.46;100.00;101794.49;108160;1257;61336;-77
2024/02/17 07:11:00;;;;;;;;;;;;;;;1.45;100.00;101791.48;108163;1254;73567;-78
2024/02/17 07:13:28;;;;;;;;;;;;;;;1.46;100.00;101793.31;108111;1258;73317;-79
2024/02/17 07:15:56;;;;;;;;;;;;;;;1.49;100.00;101792.79;108184;1254;72710;-79
2024/02/17 07:18:24;;;;;;;;;;;;;;;1.54;100.00;101795.80;108187;1257;61639;-79
2024/02/17 07:20:51;;;;;;;;;;;;;;;1.56;100.00;101798.09;108297;1254;61107;-77
2024/02/17 07:23:23;;;;;;;;;;;;;;;1.60;100.00;101794.90;108257;1254;74645;-77
2024/02/17 07:25:51;;;;;;;;;;;;;;;1.63;100.00;101801.85;108216;1257;71786;-76
2024/02/17 07:28:18;;;;;;;;;;;;;;;1.60;100.00;101799.78;108131;1254;71213;-78
2024/02/17 07:30:45;;;;;;;;;;;;;;;1.73;100.00;101800.09;108151;1256;61229;-78
2024/02/17 07:33:14;;;;;;;;;;;;;;;1.78;100.00;101800.05;108113;1254;61048;-79
2024/02/17 07:35:42;;;;;;;;;;;;;;;1.80;100.00;101797.29;108099;1255;73098;-78
2024/02/17 07:38:10;;;;;;;;;;;;;;;1.82;100.00;101795.13;108069;1254;72693;-78
2024/02/17 07:40:37;;;;;;;;;;;;;;;1.87;100.00;101800.40;108084;1257;72651;-78
2024/02/17 07:43:04;;;;;;;;;;;;;;;1.92;100.00;101801.61;108111;1254;61147;-78
2024/02/17 07:45:31;;;;;;;;;;;;;;;1.96;100.00;101799.27;108131;1254;61081;-78
2024/02/17 07:47:58;;;;;;;;;;;;;;;1.96;100.00;101800.45;108115;1257;74584;-78
2024/02/17 07:50:25;;;;;;;;;;;;;;;1.97;100.00;101797.84;108041;1254;72561;-79
2024/02/17 07:52:54;;;;;;;;;;;;;;;2.00;100.00;101793.02;108193;1254;70962;-80
2024/02/17 07:55:21;;;;;;;;;;;;;;;2.01;100.00;101789.40;108167;1255;61253;-79
2024/02/17 07:57:49;;;;;;;;;;;;;;;2.02;100.00;101793.12;108183;1257;61227;-78
2024/02/17 08:31:34;;;;;;;;;;;;;;;2.33;100.00;101775.22;107949;1256;72829;-78
2024/02/17 08:34:08;;;;;;;;;;;;;;;2.34;100.00;101775.89;108147;1256;61209;-78
2024/02/17 08:36:38;;;;;;;;;;;;;;;2.36;100.00;101772.15;108084;1257;61246;-75
2024/02/17 08:39:05;;;;;;;;;;;;;;;2.41;100.00;101768.80;108369;1256;74106;-77
2024/02/17 08:41:32;;;;;;;;;;;;;;;2.45;100.00;101768.12;108480;1255;71416;-78
2024/02/17 08:43:59;;;;;;;;;;;;;;;2.50;100.00;101765.81;108016;1259;72574;-78
2024/02/17 08:46:26;;;;;;;;;;;;;;;2.53;100.00;101767.58;107921;1257;61102;-78
2024/02/17 08:48:53;;;;;;;;;;;;;;;2.56;100.00;101766.00;107921;1260;61145;-78
2024/02/17 08:51:21;;;;;;;;;;;;;;;2.60;100.00;101764.30;107961;1256;74669;-77
2024/02/17 08:53:48;;;;;;;;;;;;;;;2.62;100.00;101761.90;107956;1260;71511;-77
2024/02/17 08:56:15;;;;;;;;;;;;;;;2.66;100.00;101759.38;107924;1260;70387;-77
2024/02/17 08:58:42;;;;;;;;;;;;;;;2.69;100.00;101759.75;107908;1256;61340;-78
2024/02/17 09:01:09;;;;;;;;;;;;;;;2.71;100.00;101753.02;107974;1256;61260;-79
2024/02/17 09:03:36;;;;;;;;;;;;;;;2.76;100.00;101749.98;107915;1257;73578;-78
2024/02/17 09:06:03;;;;;;;;;;;;;;;2.80;100.00;101753.34;107931;1260;72686;-78
2024/02/17 09:08:30;;;;;;;;;;;;;;;2.85;100.00;101754.01;107944;1257;72633;-78
2024/02/17 09:10:57;;;;;;;;;;;;;;;2.89;100.00;101750.42;107971;1256;61284;-78
2024/02/17 09:13:23;;;;;;;;;;;;;;;2.89;100.00;101747.77;107924;1257;61940;-76
2024/02/17 09:15:51;;;;;;;;;;;;;;;2.91;100.00;101750.41;108052;1257;73512;-77
2024/02/17 09:18:18;;;;;;;;;;;;;;;2.89;100.00;101746.55;107941;1256;72552;-76
2024/02/17 09:20:45;;;;;;;;;;;;;;;2.88;100.00;101748.61;107951;1256;73178;-78
2024/02/17 09:23:12;;;;;;;;;;;;;;;2.86;100.00;101747.92;107904;1258;61231;-77
2024/02/17 09:25:40;;;;;;;;;;;;;;;2.86;100.00;101748.84;107909;1256;61155;-78
2024/02/17 09:28:07;;;;;;;;;;;;;;;2.88;100.00;101748.05;107939;1257;74717;-78
2024/02/17 09:30:34;;;;;;;;;;;;;;;2.92;100.00;101744.29;107965;1256;73031;-79
2024/02/17 09:33:02;;;;;;;;;;;;;;;2.96;100.00;101744.32;107708;1256;73597;-78
2024/02/17 09:35:29;;;;;;;;;;;;;;;2.99;100.00;101738.69;107969;1257;61344;-78
2024/02/17 09:37:56;;;;;;;;;;;;;;;2.99;100.00;101740.92;107927;1256;61102;-78
2024/02/17 09:40:25;;;;;;;;;;;;;;;3.00;100.00;101739.11;107731;1257;73520;-79
2024/02/17 09:42:53;;;;;;;;;;;;;;;3.00;100.00;101737.83;107918;1260;71767;-77
2024/02/17 09:45:21;;;;;;;;;;;;;;;3.03;100.00;101736.27;107923;1260;72801;-78
2024/02/17 09:47:47;;;;;;;;;;;;;;;3.09;100.00;101735.31;107941;1257;61005;-79
2024/02/17 09:50:16;;;;;;;;;;;;;;;3.12;100.00;101732.64;107913;1259;61263;-78
2024/02/17 09:52:42;;;;;;;;;;;;;;;3.12;100.00;101723.86;107729;1257;284627;-77
2024/02/17 09:55:09;;;;;;;;;;;;;;;3.12;100.00;101721.95;107907;1260;61121;-78
2024/02/17 09:57:38;;;;;;;;;;;;;;;3.12;100.00;101723.33;107654;1262;72466;-78
2024/02/17 10:00:20;;;;;;;;;;;;;;;3.13;100.00;101718.27;107849;1261;61684;-78
2024/02/17 10:02:48;;;;;;;;;;;;;;;3.15;100.00;101719.90;107925;1259;61158;-77
2024/02/17 10:05:21;;;;;;;;;;;;;;;3.20;100.00;101717.21;107883;1258;75054;-78
2024/02/17 10:07:48;;;;;;;;;;;;;;;3.25;100.00;101715.83;107986;1256;72234;-78
2024/02/17 10:10:17;;;;;;;;;;;;;;;3.28;100.00;101712.59;108001;1260;72713;-77
2024/02/17 10:12:54;;;;;;;;;;;;;;;3.30;100.00;101710.13;107907;1260;61237;-78
2024/02/17 10:15:22;;;;;;;;;;;;;;;3.31;100.00;101706.16;107918;1256;61289;-79
2024/02/17 10:17:49;;;;;;;;;;;;;;;3.30;100.00;101703.89;107749;1257;74956;-78
2024/02/17 10:20:16;;;;;;;;;;;;;;;3.25;100.00;101705.39;107907;1257;73012;-79
2024/02/17 10:22:44;;;;;;;;;;;;;;;3.15;100.00;101700.04;107846;1260;72573;-78
2024/02/17 10:25:10;;;;;;;;;;;;;;;3.10;100.00;101692.44;107767;1260;61226;-76
2024/02/17 10:27:38;;;;;;;;;;;;;;;3.08;100.00;101689.82;107769;1258;61187;-78
2024/02/17 10:30:09;;;;;;;;;;;;;;;3.08;100.00;101684.90;107932;1258;72880;-78
2024/02/17 10:32:36;;;;;;;;;;;;;;;3.08;100.00;101684.21;107969;1256;75278;-78
2024/02/17 10:35:05;;;;;;;;;;;;;;;3.08;100.00;101679.95;107962;1260;72582;-79
2024/02/17 10:37:33;;;;;;;;;;;;;;;3.09;100.00;101678.13;108046;1256;61253;-79
2024/02/17 10:40:00;;;;;;;;;;;;;;;3.12;100.00;101677.20;108002;1260;61421;-78
2024/02/17 10:42:27;;;;;;;;;;;;;;;3.15;100.00;101673.15;107968;1256;72361;-77
2024/02/17 10:44:55;;;;;;;;;;;;;;;3.16;100.00;101666.66;107942;1257;71592;-78
2024/02/17 10:47:26;;;;;;;;;;;;;;;3.20;100.00;101667.13;107983;1257;71878;-77
2024/02/17 10:50:12;;;;;;;;;;;;;;;3.22;100.00;101664.31;107950;1257;61238;-79
2024/02/17 10:52:50;;;;;;;;;;;;;;;3.23;100.00;101659.86;107965;1260;61283;-79
2024/02/17 10:55:18;;;;;;;;;;;;;;;3.21;100.00;101658.30;107992;1259;73693;-77
2024/02/17 10:57:52;;;;;;;;;;;;;;;3.22;100.00;101654.91;107937;1256;72727;-77
2024/02/17 11:00:20;;;;;;;;;;;;;;;3.24;100.00;101650.09;107973;1257;71353;-77
2024/02/17 11:02:48;;;;;;;;;;;;;;;3.24;100.00;101647.77;107936;1260;61295;-78
2024/02/17 11:05:15;;;;;;;;;;;;;;;3.24;100.00;101642.16;107956;1260;61154;-78
2024/02/17 11:07:43;;;;;;;;;;;;;;;3.24;100.00;101642.01;107954;1260;74227;-80
2024/02/17 11:10:10;;;;;;;;;;;;;;;3.24;100.00;101638.14;107922;1257;72712;-77
2024/02/17 11:12:38;;;;;;;;;;;;;;;3.22;100.00;101635.51;107843;1262;72564;-78
2024/02/17 11:15:08;;;;;;;;;;;;;;;3.19;100.00;101632.88;107920;1258;62317;-78
2024/02/17 11:17:40;;;;;;;;;;;;;;;3.16;100.00;101630.67;107943;1257;61128;-77
2024/02/17 11:20:07;;;;;;;;;;;;;;;3.09;100.00;101622.63;107932;1260;73546;-78
2024/02/17 11:22:42;;;;;;;;;;;;;;;3.07;100.00;101618.09;107976;1258;72521;-78
2024/02/17 11:25:12;;;;;;;;;;;;;;;3.07;100.00;101617.48;107928;1257;71390;-78
2024/02/17 11:27:42;;;;;;;;;;;;;;;3.09;100.00;101617.52;107710;1257;61964;-78
2024/02/17 11:30:11;;;;;;;;;;;;;;;3.11;100.00;101611.64;107983;1260;61130;-77
2024/02/17 11:32:39;;;;;;;;;;;;;;;3.12;100.00;101607.15;107768;1262;74748;-77
2024/02/17 11:35:07;;;;;;;;;;;;;;;3.15;100.00;101607.88;107933;1257;71411;-78
2024/02/17 11:37:34;;;;;;;;;;;;;;;3.13;100.00;101609.52;107904;1257;72705;-78
2024/02/17 11:40:02;;;;;;;;;;;;;;;3.10;100.00;101611.64;107983;1257;61154;-78
2024/02/17 11:42:30;;;;;;;;;;;;;;;3.12;100.00;101605.04;107988;1257;61623;-78
2024/02/17 11:44:57;;;;;;;;;;;;;;;3.10;100.00;101603.84;107778;1257;74677;-79
2024/02/17 11:47:29;;;;;;;;;;;;;;;3.07;100.00;101606.89;107777;1262;71344;-78
2024/02/17 11:50:11;;;;;;;;;;;;;;;3.03;100.00;101599.19;107956;1260;72450;-77
2024/02/17 11:52:38;;;;;;;;;;;;;;;2.96;100.00;101598.48;107942;1259;61157;-78
2024/02/17 11:55:05;;;;;;;;;;;;;;;2.94;100.00;101599.71;107960;1256;60043;-77
2024/02/17 11:57:32;;;;;;;;;;;;;;;2.94;100.00;101598.50;107985;1257;74755;-76
2024/02/17 11:59:59;;;;;;;;;;;;;;;2.94;100.00;101599.95;107960;1256;72964;-76
2024/02/17 12:02:28;;;;;;;;;;;;;;;2.91;100.00;101599.42;107986;1260;73793;-78
2024/02/17 12:04:57;;;;;;;;;;;;;;;2.90;100.00;101596.01;107896;1257;61263;-77
2024/02/17 12:07:29;;;;;;;;;;;;;;;2.89;100.00;101595.74;108015;1260;60995;-78
2024/02/17 12:10:03;;;;;;;;;;;;;;;2.87;100.00;101593.68;107904;1262;74721;-78
2024/02/17 12:12:32;;;;;;;;;;;;;;;2.85;100.00;101593.08;107857;1262;71425;-78
2024/02/17 12:15:01;;;;;;;;;;;;;;;2.86;100.00;101590.66;107725;1262;72778;-77
2024/02/17 12:17:32;;;;;;;;;;;;;;;2.87;100.00;101588.45;107937;1257;61263;-77
2024/02/17 12:19:59;;;;;;;;;;;;;;;2.86;100.00;101588.20;107933;1256;61162;-78
2024/02/17 12:22:26;;;;;;;;;;;;;;;2.86;100.00;101588.55;108024;1257;74629;-78
2024/02/17 12:24:53;;;;;;;;;;;;;;;2.86;100.00;101591.34;108019;1257;72567;-77
2024/02/17 12:27:20;;;;;;;;;;;;;;;2.85;100.00;101590.64;107734;1262;72658;-78
2024/02/17 12:29:50;;;;;;;;;;;;;;;2.85;100.00;101591.54;107868;1262;61120;-77
2024/02/17 12:32:20;;;;;;;;;;;;;;;2.84;100.00;101585.44;108002;1256;61218;-77
2024/02/17 12:34:49;;;;;;;;;;;;;;;2.83;100.00;101584.38;107993;1257;74693;-77
2024/02/17 12:37:16;;;;;;;;;;;;;;;2.79;100.00;101582.92;107951;1258;72545;-78
2024/02/17 12:39:43;;;;;;;;;;;;;;;2.74;100.00;101578.92;107981;1257;72576;-77
2024/02/17 12:42:10;;;;;;;;;;;;;;;2.70;100.00;101582.39;107978;1257;61292;-78
2024/02/17 12:44:37;;;;;;;;;;;;;;;2.67;100.00;101578.02;107971;1260;61074;-77
2024/02/17 12:47:15;;;;;;;;;;;;;;;2.64;100.00;101574.82;107967;1257;74660;-78
2024/02/17 12:49:42;;;;;;;;;;;;;;;2.62;100.00;101572.72;107987;1257;70840;-77
2024/02/17 12:52:09;;;;;;;;;;;;;;;2.61;100.00;101568.50;108016;1260;72479;-77
2024/02/17 12:54:35;;;;;;;;;;;;;;;2.62;100.00;101570.36;107790;1257;62430;-79
2024/02/17 12:57:02;;;;;;;;;;;;;;;2.57;100.00;101566.61;107968;1257;61170;-78
2024/02/17 12:59:30;;;;;;;;;;;;;;;2.48;100.00;101567.71;107829;1257;74772;-77
2024/02/17 13:01:57;;;;;;;;;;;;;;;2.54;100.00;101562.95;107990;1257;73075;-77